createdAt,value
2018-04-06T00:06:36.000Z,22.91
2018-04-06T00:16:36.000Z,22.86
2018-04-06T00:26:36.000Z,22.8
2018-04-06T00:36:36.000Z,22.73
2018-04-06T00:46:36.000Z,22.68
2018-04-06T00:56:36.000Z,22.55
2018-04-06T01:06:36.000Z,22.48
2018-04-06T01:16:36.000Z,22.26
2018-04-06T01:26:36.000Z,22.21
2018-04-06T01:36:36.000Z,22.12
2018-04-06T01:46:36.000Z,22.03
2018-04-06T01:56:36.000Z,22
2018-04-06T02:06:36.000Z,21.98
2018-04-06T02:16:36.000Z,21.92
2018-04-06T02:26:36.000Z,21.91
2018-04-06T02:36:36.000Z,21.85
2018-04-06T02:46:37.000Z,21.79
2018-04-06T02:56:37.000Z,21.78
2018-04-06T03:06:37.000Z,21.72
2018-04-06T03:16:37.000Z,21.68
2018-04-06T03:26:37.000Z,21.62
2018-04-06T03:36:37.000Z,21.57
2018-04-06T03:46:37.000Z,21.56
2018-04-06T03:56:37.000Z,21.54
2018-04-06T04:06:37.000Z,21.54
2018-04-06T04:16:37.000Z,21.54
2018-04-06T04:26:37.000Z,21.54
2018-04-06T04:36:37.000Z,21.55
2018-04-06T04:46:37.000Z,21.59
2018-04-06T04:56:37.000Z,21.61
2018-04-06T05:06:37.000Z,21.69
2018-04-06T05:16:37.000Z,21.74
2018-04-06T05:26:37.000Z,21.71
2018-04-06T05:36:37.000Z,21.78
2018-04-06T05:46:37.000Z,21.78
2018-04-06T05:56:37.000Z,21.87
2018-04-06T06:06:37.000Z,22
2018-04-06T06:16:37.000Z,22.14
2018-04-06T06:26:37.000Z,22.27
2018-04-06T06:36:37.000Z,22.4
2018-04-06T06:46:37.000Z,22.49
2018-04-06T06:56:37.000Z,22.55
2018-04-06T07:06:37.000Z,22.72
2018-04-06T07:16:37.000Z,22.9
2018-04-06T07:26:37.000Z,23.03
2018-04-06T07:36:37.000Z,23.3
2018-04-06T07:46:37.000Z,23.51
2018-04-06T07:56:37.000Z,23.69
2018-04-06T08:06:37.000Z,23.9
2018-04-06T08:16:37.000Z,24.1
2018-04-06T08:26:37.000Z,24.32
2018-04-06T08:36:37.000Z,24.36
2018-04-06T08:46:37.000Z,24.53
2018-04-06T08:56:37.000Z,24.6
2018-04-06T09:06:37.000Z,24.81
2018-04-06T09:16:37.000Z,25
2018-04-06T09:26:37.000Z,25.18
2018-04-06T09:36:37.000Z,25.36
2018-04-06T09:46:37.000Z,25.52
2018-04-06T09:56:37.000Z,25.69
2018-04-06T10:06:37.000Z,25.8
2018-04-06T10:16:37.000Z,25.91
2018-04-06T10:26:37.000Z,26.07
2018-04-06T10:36:37.000Z,26.15
2018-04-06T10:46:37.000Z,26.18
2018-04-06T10:56:37.000Z,26.22
2018-04-06T11:06:38.000Z,26.22
2018-04-06T11:06:46.000Z,26.23
2018-04-06T11:16:46.000Z,26.19
2018-04-06T11:26:46.000Z,26.19
2018-04-06T11:36:46.000Z,26.21
2018-04-06T11:46:46.000Z,26.21
2018-04-06T11:56:46.000Z,26.16
2018-04-06T12:06:46.000Z,26.14
2018-04-06T12:16:46.000Z,26.09
2018-04-06T12:26:46.000Z,26.04
2018-04-06T12:36:47.000Z,26.05
2018-04-06T12:46:46.000Z,25.99
2018-04-06T12:56:47.000Z,25.92
2018-04-06T13:06:46.000Z,25.89
2018-04-06T13:16:46.000Z,25.76
2018-04-06T13:26:46.000Z,25.75
2018-04-06T13:36:46.000Z,25.69
2018-04-06T13:46:46.000Z,25.63
2018-04-06T13:56:46.000Z,25.54
2018-04-06T14:06:46.000Z,25.49
2018-04-06T14:16:46.000Z,25.4
2018-04-06T14:26:46.000Z,25.45
2018-04-06T14:36:46.000Z,25.32
2018-04-06T14:46:46.000Z,25.3
2018-04-06T14:56:46.000Z,25.26
2018-04-06T15:06:46.000Z,25.12
2018-04-06T15:16:46.000Z,25
2018-04-06T15:26:46.000Z,24.93
2018-04-06T15:36:46.000Z,24.85
2018-04-06T15:46:46.000Z,24.84
2018-04-06T15:56:46.000Z,24.78
2018-04-06T16:06:46.000Z,24.74
2018-04-06T16:16:46.000Z,24.9
2018-04-06T16:26:46.000Z,24.67
2018-04-06T16:36:46.000Z,24.6
2018-04-06T16:46:46.000Z,24.55
2018-04-06T16:56:46.000Z,24.47
2018-04-06T17:06:47.000Z,24.51
2018-04-06T17:16:47.000Z,24.36
2018-04-06T17:26:47.000Z,24.33
2018-04-06T17:36:47.000Z,24.3
2018-04-06T17:46:47.000Z,24.27
2018-04-06T17:56:47.000Z,24.21
2018-04-06T18:06:47.000Z,24.17
2018-04-06T18:16:47.000Z,24.08
2018-04-06T18:26:47.000Z,24.1
2018-04-06T18:36:47.000Z,24.05
2018-04-06T18:46:47.000Z,23.98
2018-04-06T18:46:54.000Z,23.98
2018-04-06T18:56:54.000Z,23.97
2018-04-06T19:06:54.000Z,23.93
2018-04-06T19:16:54.000Z,23.88
2018-04-06T19:26:54.000Z,23.84
2018-04-06T19:36:54.000Z,23.76
2018-04-06T19:46:54.000Z,23.73
2018-04-06T19:56:54.000Z,23.62
2018-04-06T20:06:54.000Z,23.56
2018-04-06T20:16:54.000Z,23.53
2018-04-06T20:26:54.000Z,23.44
2018-04-06T20:36:54.000Z,23.39
2018-04-06T20:46:54.000Z,23.33
2018-04-06T20:56:55.000Z,23.28
2018-04-06T21:06:54.000Z,23.28
2018-04-06T21:16:54.000Z,23.23
2018-04-06T21:26:54.000Z,23.21
2018-04-06T21:36:55.000Z,23.14
2018-04-06T21:46:54.000Z,23.06
2018-04-06T21:56:54.000Z,22.92
2018-04-06T22:06:54.000Z,22.84
2018-04-06T22:16:54.000Z,22.74
2018-04-06T22:26:54.000Z,22.69
2018-04-06T22:36:54.000Z,22.6
2018-04-06T22:46:54.000Z,22.53
2018-04-06T22:56:54.000Z,22.44
2018-04-06T23:06:54.000Z,22.35
2018-04-06T23:16:55.000Z,22.28
2018-04-06T23:26:54.000Z,22.22
2018-04-06T23:36:54.000Z,22.14
2018-04-06T23:46:54.000Z,22.07
2018-04-06T23:56:54.000Z,21.99
